sensor_id;sensor_type;location;lat;lon;timestamp;temperature;humidity
66096;SHT31;53861;53.422;14.530;2023-05-07T00:02:10;9.29;82.01
66096;SHT31;53861;53.422;14.530;2023-05-07T00:04:41;9.26;82.23
66096;SHT31;53861;53.422;14.530;2023-05-07T00:07:11;9.35;81.82
66096;SHT31;53861;53.422;14.530;2023-05-07T00:09:41;9.32;81.91
66096;SHT31;53861;53.422;14.530;2023-05-07T00:12:09;9.28;82.70
66096;SHT31;53861;53.422;14.530;2023-05-07T00:14:37;9.33;82.18
66096;SHT31;53861;53.422;14.530;2023-05-07T00:17:04;9.26;82.25
66096;SHT31;53861;53.422;14.530;2023-05-07T00:19:31;9.23;82.28
66096;SHT31;53861;53.422;14.530;2023-05-07T00:22:01;9.23;81.99
66096;SHT31;53861;53.422;14.530;2023-05-07T00:24:33;9.26;81.99
66096;SHT31;53861;53.422;14.530;2023-05-07T00:27:00;9.26;82.05
66096;SHT31;53861;53.422;14.530;2023-05-07T00:29:27;9.29;81.36
66096;SHT31;53861;53.422;14.530;2023-05-07T00:31:55;9.23;81.87
66096;SHT31;53861;53.422;14.530;2023-05-07T00:34:22;9.22;82.05
66096;SHT31;53861;53.422;14.530;2023-05-07T00:36:50;9.25;81.91
66096;SHT31;53861;53.422;14.530;2023-05-07T00:39:17;9.22;81.84
66096;SHT31;53861;53.422;14.530;2023-05-07T00:41:47;9.16;82.64
66096;SHT31;53861;53.422;14.530;2023-05-07T00:44:15;9.19;82.26
66096;SHT31;53861;53.422;14.530;2023-05-07T00:46:42;9.23;81.84
66096;SHT31;53861;53.422;14.530;2023-05-07T00:49:14;9.25;81.66
66096;SHT31;53861;53.422;14.530;2023-05-07T00:51:42;9.16;82.00
66096;SHT31;53861;53.422;14.530;2023-05-07T00:54:13;9.19;82.37
66096;SHT31;53861;53.422;14.530;2023-05-07T00:56:44;9.12;82.22
66096;SHT31;53861;53.422;14.530;2023-05-07T00:59:12;9.15;82.20
66096;SHT31;53861;53.422;14.530;2023-05-07T01:01:41;9.11;82.23
66096;SHT31;53861;53.422;14.530;2023-05-07T01:04:11;9.12;82.44
66096;SHT31;53861;53.422;14.530;2023-05-07T01:06:41;9.12;82.53
66096;SHT31;53861;53.422;14.530;2023-05-07T01:09:12;9.05;82.73
66096;SHT31;53861;53.422;14.530;2023-05-07T01:11:42;9.00;82.80
66096;SHT31;53861;53.422;14.530;2023-05-07T01:14:16;8.94;82.66
66096;SHT31;53861;53.422;14.530;2023-05-07T01:16:46;8.74;83.44
66096;SHT31;53861;53.422;14.530;2023-05-07T01:19:17;8.63;83.68
66096;SHT31;53861;53.422;14.530;2023-05-07T01:21:48;8.60;83.99
66096;SHT31;53861;53.422;14.530;2023-05-07T01:24:19;8.64;83.72
66096;SHT31;53861;53.422;14.530;2023-05-07T01:26:47;8.53;84.08
66096;SHT31;53861;53.422;14.530;2023-05-07T01:29:14;8.46;84.44
66096;SHT31;53861;53.422;14.530;2023-05-07T01:31:42;8.34;84.82
66096;SHT31;53861;53.422;14.530;2023-05-07T01:34:11;8.30;84.74
66096;SHT31;53861;53.422;14.530;2023-05-07T01:36:43;8.23;84.92
66096;SHT31;53861;53.422;14.530;2023-05-07T01:39:11;8.23;84.90
66096;SHT31;53861;53.422;14.530;2023-05-07T01:41:45;8.26;85.11
66096;SHT31;53861;53.422;14.530;2023-05-07T01:44:14;8.17;85.10
66096;SHT31;53861;53.422;14.530;2023-05-07T01:46:42;8.10;85.35
66096;SHT31;53861;53.422;14.530;2023-05-07T01:49:10;8.09;85.20
66096;SHT31;53861;53.422;14.530;2023-05-07T01:51:37;8.10;85.27
66096;SHT31;53861;53.422;14.530;2023-05-07T01:54:04;8.03;85.99
66096;SHT31;53861;53.422;14.530;2023-05-07T01:56:32;7.95;86.57
66096;SHT31;53861;53.422;14.530;2023-05-07T01:59:01;7.85;86.70
66096;SHT31;53861;53.422;14.530;2023-05-07T02:01:31;7.76;87.59
66096;SHT31;53861;53.422;14.530;2023-05-07T02:03:58;7.68;87.44
66096;SHT31;53861;53.422;14.530;2023-05-07T02:06:26;7.58;87.82
66096;SHT31;53861;53.422;14.530;2023-05-07T02:08:55;7.61;87.97
66096;SHT31;53861;53.422;14.530;2023-05-07T02:11:25;7.59;87.94
66096;SHT31;53861;53.422;14.530;2023-05-07T02:13:53;7.62;87.56
66096;SHT31;53861;53.422;14.530;2023-05-07T02:16:22;7.62;87.35
66096;SHT31;53861;53.422;14.530;2023-05-07T02:18:49;7.67;87.04
66096;SHT31;53861;53.422;14.530;2023-05-07T02:21:17;7.72;87.29
66096;SHT31;53861;53.422;14.530;2023-05-07T02:23:49;7.83;86.82
66096;SHT31;53861;53.422;14.530;2023-05-07T02:26:18;7.82;86.59
66096;SHT31;53861;53.422;14.530;2023-05-07T02:28:49;7.89;86.39
66096;SHT31;53861;53.422;14.530;2023-05-07T02:31:18;7.98;86.14
66096;SHT31;53861;53.422;14.530;2023-05-07T02:33:46;8.03;86.05
66096;SHT31;53861;53.422;14.530;2023-05-07T02:36:16;8.06;86.02
66096;SHT31;53861;53.422;14.530;2023-05-07T02:38:45;8.02;86.09
66096;SHT31;53861;53.422;14.530;2023-05-07T02:41:13;8.06;85.74
66096;SHT31;53861;53.422;14.530;2023-05-07T02:43:40;7.99;85.72
66096;SHT31;53861;53.422;14.530;2023-05-07T02:46:09;8.00;85.52
66096;SHT31;53861;53.422;14.530;2023-05-07T02:48:36;8.02;85.32
66096;SHT31;53861;53.422;14.530;2023-05-07T02:51:11;8.03;85.38
66096;SHT31;53861;53.422;14.530;2023-05-07T02:53:41;8.00;85.57
66096;SHT31;53861;53.422;14.530;2023-05-07T02:56:11;7.99;85.41
66096;SHT31;53861;53.422;14.530;2023-05-07T02:58:41;8.02;85.24
66096;SHT31;53861;53.422;14.530;2023-05-07T03:01:11;8.02;85.16
66096;SHT31;53861;53.422;14.530;2023-05-07T03:03:39;8.05;85.51
66096;SHT31;53861;53.422;14.530;2023-05-07T03:06:11;8.05;84.99
66096;SHT31;53861;53.422;14.530;2023-05-07T03:08:38;8.00;84.95
66096;SHT31;53861;53.422;14.530;2023-05-07T03:11:06;8.00;84.54
66096;SHT31;53861;53.422;14.530;2023-05-07T03:13:35;7.98;83.99
66096;SHT31;53861;53.422;14.530;2023-05-07T03:16:06;7.95;84.12
66096;SHT31;53861;53.422;14.530;2023-05-07T03:18:33;7.93;83.90
66096;SHT31;53861;53.422;14.530;2023-05-07T03:21:00;7.88;83.48
66096;SHT31;53861;53.422;14.530;2023-05-07T03:23:29;7.83;83.03
66096;SHT31;53861;53.422;14.530;2023-05-07T03:25:57;7.71;83.62
66096;SHT31;53861;53.422;14.530;2023-05-07T03:28:26;7.64;83.75
66096;SHT31;53861;53.422;14.530;2023-05-07T03:30:57;7.55;84.75
66096;SHT31;53861;53.422;14.530;2023-05-07T03:33:25;7.52;84.56
66096;SHT31;53861;53.422;14.530;2023-05-07T03:35:55;7.47;85.17
66096;SHT31;53861;53.422;14.530;2023-05-07T03:38:23;7.45;84.25
66096;SHT31;53861;53.422;14.530;2023-05-07T03:40:51;7.48;85.30
66096;SHT31;53861;53.422;14.530;2023-05-07T03:43:22;7.50;84.28
66096;SHT31;53861;53.422;14.530;2023-05-07T03:45:51;7.51;84.33
66096;SHT31;53861;53.422;14.530;2023-05-07T03:48:19;7.55;84.42
66096;SHT31;53861;53.422;14.530;2023-05-07T03:50:46;7.51;84.28
66096;SHT31;53861;53.422;14.530;2023-05-07T03:53:14;7.47;84.28
66096;SHT31;53861;53.422;14.530;2023-05-07T03:55:43;7.51;84.08
66096;SHT31;53861;53.422;14.530;2023-05-07T03:58:13;7.44;84.29
66096;SHT31;53861;53.422;14.530;2023-05-07T04:00:43;7.43;84.32
66096;SHT31;53861;53.422;14.530;2023-05-07T04:03:11;7.34;84.60
66096;SHT31;53861;53.422;14.530;2023-05-07T04:05:38;7.40;83.94
66096;SHT31;53861;53.422;14.530;2023-05-07T04:08:09;7.40;83.79
66096;SHT31;53861;53.422;14.530;2023-05-07T04:10:36;7.40;83.75
66096;SHT31;53861;53.422;14.530;2023-05-07T04:13:04;7.37;83.86
66096;SHT31;53861;53.422;14.530;2023-05-07T04:15:32;7.31;84.28
66096;SHT31;53861;53.422;14.530;2023-05-07T04:17:59;7.32;84.08
66096;SHT31;53861;53.422;14.530;2023-05-07T04:20:27;7.37;84.51
66096;SHT31;53861;53.422;14.530;2023-05-07T04:22:54;7.34;84.24
66096;SHT31;53861;53.422;14.530;2023-05-07T04:25:40;7.38;84.30
66096;SHT31;53861;53.422;14.530;2023-05-07T04:28:07;7.37;84.37
66096;SHT31;53861;53.422;14.530;2023-05-07T04:30:38;7.37;84.46
66096;SHT31;53861;53.422;14.530;2023-05-07T04:33:07;7.37;84.62
66096;SHT31;53861;53.422;14.530;2023-05-07T04:35:35;7.41;84.02
66096;SHT31;53861;53.422;14.530;2023-05-07T04:38:02;7.47;85.07
66096;SHT31;53861;53.422;14.530;2023-05-07T04:40:29;7.44;84.12
66096;SHT31;53861;53.422;14.530;2023-05-07T04:42:57;7.54;83.16
66096;SHT31;53861;53.422;14.530;2023-05-07T04:45:24;7.64;82.91
66096;SHT31;53861;53.422;14.530;2023-05-07T04:47:52;7.65;82.66
66096;SHT31;53861;53.422;14.530;2023-05-07T04:50:20;7.67;82.63
66096;SHT31;53861;53.422;14.530;2023-05-07T04:52:49;7.72;82.10
66096;SHT31;53861;53.422;14.530;2023-05-07T04:55:16;7.81;81.45
66096;SHT31;53861;53.422;14.530;2023-05-07T04:57:43;7.76;81.78
66096;SHT31;53861;53.422;14.530;2023-05-07T05:00:11;7.76;82.25
66096;SHT31;53861;53.422;14.530;2023-05-07T05:02:40;7.86;81.38
66096;SHT31;53861;53.422;14.530;2023-05-07T05:05:10;7.88;80.93
66096;SHT31;53861;53.422;14.530;2023-05-07T05:07:37;7.88;81.53
66096;SHT31;53861;53.422;14.530;2023-05-07T05:10:05;7.90;81.71
66096;SHT31;53861;53.422;14.530;2023-05-07T05:12:33;8.02;81.90
66096;SHT31;53861;53.422;14.530;2023-05-07T05:15:00;8.13;81.03
66096;SHT31;53861;53.422;14.530;2023-05-07T05:17:27;8.19;80.88
66096;SHT31;53861;53.422;14.530;2023-05-07T05:19:54;8.32;80.70
66096;SHT31;53861;53.422;14.530;2023-05-07T05:22:23;8.46;80.31
66096;SHT31;53861;53.422;14.530;2023-05-07T05:24:51;8.57;79.78
66096;SHT31;53861;53.422;14.530;2023-05-07T05:27:18;8.84;79.03
66096;SHT31;53861;53.422;14.530;2023-05-07T05:29:46;8.84;78.69
66096;SHT31;53861;53.422;14.530;2023-05-07T05:32:13;8.98;77.85
66096;SHT31;53861;53.422;14.530;2023-05-07T05:34:40;9.08;77.61
66096;SHT31;53861;53.422;14.530;2023-05-07T05:37:07;9.12;77.70
66096;SHT31;53861;53.422;14.530;2023-05-07T05:39:36;9.32;76.74
66096;SHT31;53861;53.422;14.530;2023-05-07T05:42:04;9.46;77.54
66096;SHT31;53861;53.422;14.530;2023-05-07T05:44:31;9.55;77.01
66096;SHT31;53861;53.422;14.530;2023-05-07T05:46:58;9.62;75.54
66096;SHT31;53861;53.422;14.530;2023-05-07T05:49:26;9.91;75.71
66096;SHT31;53861;53.422;14.530;2023-05-07T05:51:53;9.98;75.04
66096;SHT31;53861;53.422;14.530;2023-05-07T05:54:21;10.08;74.83
66096;SHT31;53861;53.422;14.530;2023-05-07T05:56:50;10.07;75.67
66096;SHT31;53861;53.422;14.530;2023-05-07T05:59:17;10.20;74.55
66096;SHT31;53861;53.422;14.530;2023-05-07T06:01:44;10.30;74.38
66096;SHT31;53861;53.422;14.530;2023-05-07T06:04:12;10.37;73.97
66096;SHT31;53861;53.422;14.530;2023-05-07T06:06:39;10.49;73.46
66096;SHT31;53861;53.422;14.530;2023-05-07T06:09:06;10.83;73.34
66096;SHT31;53861;53.422;14.530;2023-05-07T06:11:34;10.83;71.85
66096;SHT31;53861;53.422;14.530;2023-05-07T06:14:02;11.03;72.04
66096;SHT31;53861;53.422;14.530;2023-05-07T06:16:29;11.34;71.81
66096;SHT31;53861;53.422;14.530;2023-05-07T06:18:57;11.49;71.36
66096;SHT31;53861;53.422;14.530;2023-05-07T06:21:24;11.82;70.80
66096;SHT31;53861;53.422;14.530;2023-05-07T06:23:51;11.97;70.40
66096;SHT31;53861;53.422;14.530;2023-05-07T06:26:20;11.73;69.18
66096;SHT31;53861;53.422;14.530;2023-05-07T06:28:47;12.73;68.29
66096;SHT31;53861;53.422;14.530;2023-05-07T06:31:17;13.88;65.49
66096;SHT31;53861;53.422;14.530;2023-05-07T06:33:46;14.81;62.00
66096;SHT31;53861;53.422;14.530;2023-05-07T06:36:14;15.49;60.89
66096;SHT31;53861;53.422;14.530;2023-05-07T06:38:41;15.95;61.01
66096;SHT31;53861;53.422;14.530;2023-05-07T06:41:08;15.49;58.89
66096;SHT31;53861;53.422;14.530;2023-05-07T06:43:36;15.51;60.03
66096;SHT31;53861;53.422;14.530;2023-05-07T06:46:03;14.92;61.75
66096;SHT31;53861;53.422;14.530;2023-05-07T06:48:32;14.67;63.93
66096;SHT31;53861;53.422;14.530;2023-05-07T06:50:59;14.40;61.23
66096;SHT31;53861;53.422;14.530;2023-05-07T06:53:26;14.39;63.35
66096;SHT31;53861;53.422;14.530;2023-05-07T06:55:54;14.44;63.81
66096;SHT31;53861;53.422;14.530;2023-05-07T06:58:22;15.49;60.71
66096;SHT31;53861;53.422;14.530;2023-05-07T07:00:49;15.87;60.77
66096;SHT31;53861;53.422;14.530;2023-05-07T07:03:16;16.27;59.10
66096;SHT31;53861;53.422;14.530;2023-05-07T07:05:45;16.50;57.98
66096;SHT31;53861;53.422;14.530;2023-05-07T07:08:12;17.38;59.42
66096;SHT31;53861;53.422;14.530;2023-05-07T07:10:40;17.45;54.59
66096;SHT31;53861;53.422;14.530;2023-05-07T07:13:07;17.33;56.25
66096;SHT31;53861;53.422;14.530;2023-05-07T07:15:34;18.14;51.80
66096;SHT31;53861;53.422;14.530;2023-05-07T07:18:02;18.48;51.49
66096;SHT31;53861;53.422;14.530;2023-05-07T07:20:29;18.75;53.86
66096;SHT31;53861;53.422;14.530;2023-05-07T07:22:58;18.58;53.10
66096;SHT31;53861;53.422;14.530;2023-05-07T07:25:25;18.44;53.88
66096;SHT31;53861;53.422;14.530;2023-05-07T07:27:52;18.89;52.22
66096;SHT31;53861;53.422;14.530;2023-05-07T07:30:20;19.58;49.51
66096;SHT31;53861;53.422;14.530;2023-05-07T07:32:47;18.82;53.15
66096;SHT31;53861;53.422;14.530;2023-05-07T07:35:14;18.30;49.42
66096;SHT31;53861;53.422;14.530;2023-05-07T07:37:42;19.51;47.25
66096;SHT31;53861;53.422;14.530;2023-05-07T07:40:12;19.87;48.44
66096;SHT31;53861;53.422;14.530;2023-05-07T07:42:39;20.59;49.00
66096;SHT31;53861;53.422;14.530;2023-05-07T07:45:07;20.24;48.01
66096;SHT31;53861;53.422;14.530;2023-05-07T07:47:35;20.28;45.19
66096;SHT31;53861;53.422;14.530;2023-05-07T07:50:08;20.04;47.02
66096;SHT31;53861;53.422;14.530;2023-05-07T07:52:36;20.36;50.81
66096;SHT31;53861;53.422;14.530;2023-05-07T07:55:04;20.04;48.91
66096;SHT31;53861;53.422;14.530;2023-05-07T07:57:33;21.14;43.62
66096;SHT31;53861;53.422;14.530;2023-05-07T08:00:01;20.79;46.65
66096;SHT31;53861;53.422;14.530;2023-05-07T08:02:29;21.06;45.64
66096;SHT31;53861;53.422;14.530;2023-05-07T08:04:57;20.77;47.36
66096;SHT31;53861;53.422;14.530;2023-05-07T08:07:27;20.96;45.39
66096;SHT31;53861;53.422;14.530;2023-05-07T08:09:55;22.46;41.88
66096;SHT31;53861;53.422;14.530;2023-05-07T08:12:22;22.94;40.26
66096;SHT31;53861;53.422;14.530;2023-05-07T08:14:51;21.48;46.50
66096;SHT31;53861;53.422;14.530;2023-05-07T08:17:21;21.30;43.80
66096;SHT31;53861;53.422;14.530;2023-05-07T08:19:50;21.92;42.33
66096;SHT31;53861;53.422;14.530;2023-05-07T08:22:19;22.77;40.80
66096;SHT31;53861;53.422;14.530;2023-05-07T08:24:48;21.38;43.17
66096;SHT31;53861;53.422;14.530;2023-05-07T08:27:19;22.09;42.69
66096;SHT31;53861;53.422;14.530;2023-05-07T08:29:46;20.17;41.67
66096;SHT31;53861;53.422;14.530;2023-05-07T08:32:16;21.75;41.99
66096;SHT31;53861;53.422;14.530;2023-05-07T08:34:46;21.71;40.92
66096;SHT31;53861;53.422;14.530;2023-05-07T08:37:16;21.12;42.02
66096;SHT31;53861;53.422;14.530;2023-05-07T08:39:46;21.42;42.84
66096;SHT31;53861;53.422;14.530;2023-05-07T08:42:16;22.19;41.09
66096;SHT31;53861;53.422;14.530;2023-05-07T08:44:45;22.50;41.78
66096;SHT31;53861;53.422;14.530;2023-05-07T08:47:28;21.82;40.81
66096;SHT31;53861;53.422;14.530;2023-05-07T08:49:56;21.27;41.11
66096;SHT31;53861;53.422;14.530;2023-05-07T08:52:26;21.95;42.45
66096;SHT31;53861;53.422;14.530;2023-05-07T08:54:56;22.12;40.20
66096;SHT31;53861;53.422;14.530;2023-05-07T08:57:26;22.33;39.39
66096;SHT31;53861;53.422;14.530;2023-05-07T08:59:56;21.41;42.39
66096;SHT31;53861;53.422;14.530;2023-05-07T09:02:25;22.15;41.23
66096;SHT31;53861;53.422;14.530;2023-05-07T09:04:56;23.29;40.93
66096;SHT31;53861;53.422;14.530;2023-05-07T09:07:26;22.63;40.39
66096;SHT31;53861;53.422;14.530;2023-05-07T09:09:56;22.81;39.12
66096;SHT31;53861;53.422;14.530;2023-05-07T09:12:26;21.55;41.52
66096;SHT31;53861;53.422;14.530;2023-05-07T09:14:53;22.10;41.27
66096;SHT31;53861;53.422;14.530;2023-05-07T09:17:30;23.04;39.49
66096;SHT31;53861;53.422;14.530;2023-05-07T09:20:02;22.80;40.43
66096;SHT31;53861;53.422;14.530;2023-05-07T09:22:36;23.25;39.83
66096;SHT31;53861;53.422;14.530;2023-05-07T09:25:06;23.72;37.34
66096;SHT31;53861;53.422;14.530;2023-05-07T09:27:35;23.93;36.25
66096;SHT31;53861;53.422;14.530;2023-05-07T09:30:06;23.19;40.82
66096;SHT31;53861;53.422;14.530;2023-05-07T09:32:36;23.11;37.30
66096;SHT31;53861;53.422;14.530;2023-05-07T09:35:05;22.86;37.76
66096;SHT31;53861;53.422;14.530;2023-05-07T09:37:35;24.27;38.79
66096;SHT31;53861;53.422;14.530;2023-05-07T09:40:04;23.39;38.50
66096;SHT31;53861;53.422;14.530;2023-05-07T09:42:35;23.21;37.16
66096;SHT31;53861;53.422;14.530;2023-05-07T09:45:05;24.57;38.18
66096;SHT31;53861;53.422;14.530;2023-05-07T09:47:39;23.46;36.94
66096;SHT31;53861;53.422;14.530;2023-05-07T09:50:08;23.98;37.37
66096;SHT31;53861;53.422;14.530;2023-05-07T09:52:41;24.41;34.59
66096;SHT31;53861;53.422;14.530;2023-05-07T09:55:12;23.96;36.76
66096;SHT31;53861;53.422;14.530;2023-05-07T09:57:45;23.32;36.98
66096;SHT31;53861;53.422;14.530;2023-05-07T10:00:22;24.80;35.38
66096;SHT31;53861;53.422;14.530;2023-05-07T10:02:57;23.80;36.32
66096;SHT31;53861;53.422;14.530;2023-05-07T10:05:27;24.17;39.26
66096;SHT31;53861;53.422;14.530;2023-05-07T10:07:56;24.78;36.94
66096;SHT31;53861;53.422;14.530;2023-05-07T10:10:26;24.43;36.66
66096;SHT31;53861;53.422;14.530;2023-05-07T10:12:57;23.05;39.52
66096;SHT31;53861;53.422;14.530;2023-05-07T10:15:31;23.45;38.08
66096;SHT31;53861;53.422;14.530;2023-05-07T10:18:00;23.93;36.25
66096;SHT31;53861;53.422;14.530;2023-05-07T10:20:29;23.75;36.18
66096;SHT31;53861;53.422;14.530;2023-05-07T10:22:57;24.41;38.49
66096;SHT31;53861;53.422;14.530;2023-05-07T10:25:28;25.82;38.03
66096;SHT31;53861;53.422;14.530;2023-05-07T10:27:58;26.28;33.85
66096;SHT31;53861;53.422;14.530;2023-05-07T10:30:32;25.50;34.65
66096;SHT31;53861;53.422;14.530;2023-05-07T10:33:07;25.52;35.03
66096;SHT31;53861;53.422;14.530;2023-05-07T10:35:38;25.50;37.58
66096;SHT31;53861;53.422;14.530;2023-05-07T10:38:06;26.44;33.93
66096;SHT31;53861;53.422;14.530;2023-05-07T10:40:34;25.49;34.24
66096;SHT31;53861;53.422;14.530;2023-05-07T10:43:02;24.26;37.48
66096;SHT31;53861;53.422;14.530;2023-05-07T10:45:31;24.51;38.51
66096;SHT31;53861;53.422;14.530;2023-05-07T10:48:13;24.91;37.12
66096;SHT31;53861;53.422;14.530;2023-05-07T10:50:41;22.87;38.47
66096;SHT31;53861;53.422;14.530;2023-05-07T10:53:22;22.53;38.16
66096;SHT31;53861;53.422;14.530;2023-05-07T10:56:25;24.14;37.92
66096;SHT31;53861;53.422;14.530;2023-05-07T10:58:56;25.11;35.97
66096;SHT31;53861;53.422;14.530;2023-05-07T11:01:50;23.44;41.37
66096;SHT31;53861;53.422;14.530;2023-05-07T11:04:20;22.84;38.34
66096;SHT31;53861;53.422;14.530;2023-05-07T11:10:00;24.71;35.94
66096;SHT31;53861;53.422;14.530;2023-05-07T11:12:52;24.16;39.49
66096;SHT31;53861;53.422;14.530;2023-05-07T11:15:42;25.52;34.06
66096;SHT31;53861;53.422;14.530;2023-05-07T11:18:11;24.74;35.73
66096;SHT31;53861;53.422;14.530;2023-05-07T11:21:01;25.07;33.74
66096;SHT31;53861;53.422;14.530;2023-05-07T11:23:57;24.44;35.41
66096;SHT31;53861;53.422;14.530;2023-05-07T11:26:25;24.75;35.43
66096;SHT31;53861;53.422;14.530;2023-05-07T11:28:53;24.80;34.36
66096;SHT31;53861;53.422;14.530;2023-05-07T11:31:22;24.78;35.63
66096;SHT31;53861;53.422;14.530;2023-05-07T11:33:50;24.85;36.49
66096;SHT31;53861;53.422;14.530;2023-05-07T11:36:20;26.05;32.57
66096;SHT31;53861;53.422;14.530;2023-05-07T11:38:47;24.99;33.95
66096;SHT31;53861;53.422;14.530;2023-05-07T11:41:16;25.16;34.63
66096;SHT31;53861;53.422;14.530;2023-05-07T11:44:03;24.29;34.97
66096;SHT31;53861;53.422;14.530;2023-05-07T11:46:30;23.21;36.85
66096;SHT31;53861;53.422;14.530;2023-05-07T11:48:57;24.61;34.94
66096;SHT31;53861;53.422;14.530;2023-05-07T11:51:26;24.51;38.67
66096;SHT31;53861;53.422;14.530;2023-05-07T11:53:53;24.88;37.17
66096;SHT31;53861;53.422;14.530;2023-05-07T11:56:21;24.68;34.42
66096;SHT31;53861;53.422;14.530;2023-05-07T11:58:48;24.85;33.64
66096;SHT31;53861;53.422;14.530;2023-05-07T12:01:17;25.19;31.75
66096;SHT31;53861;53.422;14.530;2023-05-07T12:03:45;24.90;30.81
66096;SHT31;53861;53.422;14.530;2023-05-07T12:06:15;25.73;33.81
66096;SHT31;53861;53.422;14.530;2023-05-07T12:08:45;26.12;32.40
66096;SHT31;53861;53.422;14.530;2023-05-07T12:11:16;25.84;32.92
66096;SHT31;53861;53.422;14.530;2023-05-07T12:13:48;26.13;31.02
66096;SHT31;53861;53.422;14.530;2023-05-07T12:16:16;26.34;30.44
66096;SHT31;53861;53.422;14.530;2023-05-07T12:18:44;26.72;33.34
66096;SHT31;53861;53.422;14.530;2023-05-07T12:21:11;26.37;33.23
66096;SHT31;53861;53.422;14.530;2023-05-07T12:23:39;26.03;31.69
66096;SHT31;53861;53.422;14.530;2023-05-07T12:26:08;25.36;32.66
66096;SHT31;53861;53.422;14.530;2023-05-07T12:28:37;25.67;33.72
66096;SHT31;53861;53.422;14.530;2023-05-07T12:31:05;26.00;31.88
66096;SHT31;53861;53.422;14.530;2023-05-07T12:33:33;26.27;33.31
66096;SHT31;53861;53.422;14.530;2023-05-07T12:36:04;25.62;32.95
66096;SHT31;53861;53.422;14.530;2023-05-07T12:38:36;25.28;35.83
66096;SHT31;53861;53.422;14.530;2023-05-07T12:41:05;25.25;32.19
66096;SHT31;53861;53.422;14.530;2023-05-07T12:43:34;25.67;32.17
66096;SHT31;53861;53.422;14.530;2023-05-07T12:46:03;25.65;32.94
66096;SHT31;53861;53.422;14.530;2023-05-07T12:48:31;25.96;34.42
66096;SHT31;53861;53.422;14.530;2023-05-07T12:51:00;25.61;35.01
66096;SHT31;53861;53.422;14.530;2023-05-07T12:53:28;25.87;34.01
66096;SHT31;53861;53.422;14.530;2023-05-07T12:55:58;24.30;33.90
66096;SHT31;53861;53.422;14.530;2023-05-07T12:58:26;25.66;35.54
66096;SHT31;53861;53.422;14.530;2023-05-07T13:00:56;25.58;32.91
66096;SHT31;53861;53.422;14.530;2023-05-07T13:03:26;24.87;32.42
66096;SHT31;53861;53.422;14.530;2023-05-07T13:05:55;24.46;32.03
66096;SHT31;53861;53.422;14.530;2023-05-07T13:08:30;25.45;33.54
66096;SHT31;53861;53.422;14.530;2023-05-07T13:10:58;25.31;35.27
66096;SHT31;53861;53.422;14.530;2023-05-07T13:13:29;25.61;32.93
66096;SHT31;53861;53.422;14.530;2023-05-07T13:15:57;25.69;33.81
66096;SHT31;53861;53.422;14.530;2023-05-07T13:18:26;24.40;31.55
66096;SHT31;53861;53.422;14.530;2023-05-07T13:20:53;23.98;36.75
66096;SHT31;53861;53.422;14.530;2023-05-07T13:23:21;24.72;37.22
66096;SHT31;53861;53.422;14.530;2023-05-07T13:25:49;24.27;33.76
66096;SHT31;53861;53.422;14.530;2023-05-07T13:28:16;24.95;35.72
66096;SHT31;53861;53.422;14.530;2023-05-07T13:30:44;25.02;33.03
66096;SHT31;53861;53.422;14.530;2023-05-07T13:33:12;24.81;32.54
66096;SHT31;53861;53.422;14.530;2023-05-07T13:35:40;24.94;37.73
66096;SHT31;53861;53.422;14.530;2023-05-07T13:38:07;22.71;34.01
66096;SHT31;53861;53.422;14.530;2023-05-07T13:40:34;23.45;34.71
66096;SHT31;53861;53.422;14.530;2023-05-07T13:43:02;23.61;34.73
66096;SHT31;53861;53.422;14.530;2023-05-07T13:45:29;24.17;36.42
66096;SHT31;53861;53.422;14.530;2023-05-07T13:47:56;23.66;35.72
66096;SHT31;53861;53.422;14.530;2023-05-07T13:50:25;24.51;34.38
66096;SHT31;53861;53.422;14.530;2023-05-07T13:52:55;24.33;34.30
66096;SHT31;53861;53.422;14.530;2023-05-07T13:55:23;24.41;34.02
66096;SHT31;53861;53.422;14.530;2023-05-07T13:57:55;23.44;36.84
66096;SHT31;53861;53.422;14.530;2023-05-07T14:00:23;23.85;36.18
66096;SHT31;53861;53.422;14.530;2023-05-07T14:02:50;23.17;38.43
66096;SHT31;53861;53.422;14.530;2023-05-07T14:05:18;22.53;38.76
66096;SHT31;53861;53.422;14.530;2023-05-07T14:07:46;22.33;36.37
66096;SHT31;53861;53.422;14.530;2023-05-07T14:10:15;22.47;38.34
66096;SHT31;53861;53.422;14.530;2023-05-07T14:12:42;22.05;37.54
66096;SHT31;53861;53.422;14.530;2023-05-07T14:15:09;21.50;39.60
66096;SHT31;53861;53.422;14.530;2023-05-07T14:17:37;20.97;38.57
66096;SHT31;53861;53.422;14.530;2023-05-07T14:20:05;20.84;38.40
66096;SHT31;53861;53.422;14.530;2023-05-07T14:22:33;20.32;39.37
66096;SHT31;53861;53.422;14.530;2023-05-07T14:25:02;20.80;40.51
66096;SHT31;53861;53.422;14.530;2023-05-07T14:27:30;20.11;40.12
66096;SHT31;53861;53.422;14.530;2023-05-07T14:29:57;20.19;40.33
66096;SHT31;53861;53.422;14.530;2023-05-07T14:32:26;19.97;40.60
66096;SHT31;53861;53.422;14.530;2023-05-07T14:34:53;19.79;40.91
66096;SHT31;53861;53.422;14.530;2023-05-07T14:37:20;20.15;40.67
66096;SHT31;53861;53.422;14.530;2023-05-07T14:39:48;20.26;41.02
66096;SHT31;53861;53.422;14.530;2023-05-07T14:42:17;20.48;42.36
66096;SHT31;53861;53.422;14.530;2023-05-07T14:44:44;20.40;40.19
66096;SHT31;53861;53.422;14.530;2023-05-07T14:47:13;20.53;41.16
66096;SHT31;53861;53.422;14.530;2023-05-07T14:49:41;20.24;42.74
66096;SHT31;53861;53.422;14.530;2023-05-07T14:52:08;20.15;40.46
66096;SHT31;53861;53.422;14.530;2023-05-07T14:54:37;20.36;40.95
66096;SHT31;53861;53.422;14.530;2023-05-07T14:57:05;20.29;42.23
66096;SHT31;53861;53.422;14.530;2023-05-07T14:59:34;19.82;40.75
66096;SHT31;53861;53.422;14.530;2023-05-07T15:02:01;20.02;43.44
66096;SHT31;53861;53.422;14.530;2023-05-07T15:04:29;20.09;40.99
66096;SHT31;53861;53.422;14.530;2023-05-07T15:06:56;20.04;43.27
66096;SHT31;53861;53.422;14.530;2023-05-07T15:09:23;19.77;42.97
66096;SHT31;53861;53.422;14.530;2023-05-07T15:11:50;19.67;44.29
66096;SHT31;53861;53.422;14.530;2023-05-07T15:14:18;19.36;42.95
66096;SHT31;53861;53.422;14.530;2023-05-07T15:16:49;19.10;43.13
66096;SHT31;53861;53.422;14.530;2023-05-07T15:19:16;19.37;42.66
66096;SHT31;53861;53.422;14.530;2023-05-07T15:21:43;19.15;43.57
66096;SHT31;53861;53.422;14.530;2023-05-07T15:24:11;19.17;42.60
66096;SHT31;53861;53.422;14.530;2023-05-07T15:26:38;19.41;43.12
66096;SHT31;53861;53.422;14.530;2023-05-07T15:29:05;19.43;42.16
66096;SHT31;53861;53.422;14.530;2023-05-07T15:31:36;19.22;44.29
66096;SHT31;53861;53.422;14.530;2023-05-07T15:34:06;18.34;44.71
66096;SHT31;53861;53.422;14.530;2023-05-07T15:36:33;18.72;44.87
66096;SHT31;53861;53.422;14.530;2023-05-07T15:39:01;18.44;44.58